createdAt,value
2019-02-17T00:01:39.624Z,23.30
2019-02-17T00:04:10.426Z,22.20
2019-02-17T00:06:41.903Z,20.63
2019-02-17T00:09:15.592Z,23.22
2019-02-17T00:11:47.993Z,22.75
2019-02-17T00:14:19.701Z,23.10
2019-02-17T00:16:50.706Z,22.10
2019-02-17T00:19:21.439Z,22.45
2019-02-17T00:21:52.417Z,21.33
2019-02-17T00:24:23.158Z,22.00
2019-02-17T00:26:53.891Z,22.45
2019-02-17T00:29:24.615Z,22.73
2019-02-17T00:31:55.352Z,22.37
2019-02-17T00:34:26.391Z,22.62
2019-02-17T00:36:57.120Z,22.25
2019-02-17T00:39:27.847Z,22.15
2019-02-17T00:41:58.998Z,22.45
2019-02-17T00:44:29.843Z,22.32
2019-02-17T00:47:00.768Z,23.90
2019-02-17T00:49:31.579Z,22.40
2019-02-17T00:52:03.031Z,23.98
2019-02-17T00:54:33.828Z,22.80
2019-02-17T00:57:04.813Z,21.33
2019-02-17T00:59:35.655Z,22.77
2019-02-17T01:02:06.510Z,22.10
2019-02-17T01:04:37.303Z,21.77
2019-02-17T01:07:08.101Z,22.55
2019-02-17T01:09:38.927Z,24.72
2019-02-17T01:12:09.950Z,23.50
2019-02-17T01:14:41.838Z,22.90
2019-02-17T01:17:12.639Z,21.77
2019-02-17T01:19:43.387Z,22.70
2019-02-17T01:22:14.271Z,21.33
2019-02-17T01:24:46.894Z,21.87
2019-02-17T01:27:17.631Z,23.47
2019-02-17T01:29:48.740Z,21.27
2019-02-17T01:32:19.853Z,22.00
2019-02-17T01:34:50.992Z,21.73
2019-02-17T01:37:22.129Z,21.40
2019-02-17T01:39:54.015Z,21.37
2019-02-17T01:42:24.738Z,21.47
2019-02-17T01:44:55.481Z,22.10
2019-02-17T01:47:26.223Z,20.72
2019-02-17T01:49:57.333Z,21.35
2019-02-17T01:52:28.060Z,22.22
2019-02-17T01:54:58.823Z,22.05
2019-02-17T01:57:29.539Z,22.35
2019-02-17T02:00:00.391Z,22.65
2019-02-17T02:02:31.317Z,21.90
2019-02-17T02:05:02.336Z,22.82
2019-02-17T02:07:33.368Z,21.85
2019-02-17T02:10:04.954Z,22.62
2019-02-17T02:12:35.750Z,22.52
2019-02-17T02:15:07.615Z,22.40
2019-02-17T02:17:38.463Z,22.83
2019-02-17T02:20:10.446Z,21.77
2019-02-17T02:22:41.752Z,22.22
2019-02-17T02:25:12.877Z,22.15
2019-02-17T02:27:43.851Z,23.00
2019-02-17T02:30:15.089Z,22.10
2019-02-17T02:32:45.878Z,24.52
2019-02-17T02:35:16.823Z,23.30
2019-02-17T02:37:47.615Z,22.37
2019-02-17T02:40:18.371Z,23.90
2019-02-17T02:42:49.104Z,22.82
2019-02-17T02:45:19.867Z,23.73
2019-02-17T02:47:50.648Z,21.35
2019-02-17T02:50:21.670Z,22.10
2019-02-17T02:52:52.728Z,22.35
2019-02-17T02:55:23.514Z,23.27
2019-02-17T02:57:54.339Z,21.82
2019-02-17T03:00:25.255Z,22.77
2019-02-17T03:02:55.982Z,21.57
2019-02-17T03:05:26.767Z,22.90
2019-02-17T03:07:57.661Z,22.13
2019-02-17T03:10:28.420Z,21.55
2019-02-17T03:12:59.273Z,22.02
2019-02-17T03:15:31.118Z,23.95
2019-02-17T03:18:02.011Z,21.60
2019-02-17T03:20:33.270Z,22.07
2019-02-17T03:23:04.385Z,21.27
2019-02-17T03:25:35.362Z,24.00
2019-02-17T03:28:06.516Z,22.13
2019-02-17T03:30:37.449Z,22.37
2019-02-17T03:33:08.490Z,22.00
2019-02-17T03:35:39.378Z,21.85
2019-02-17T03:38:10.199Z,22.48
2019-02-17T03:40:41.077Z,22.73
2019-02-17T03:43:12.380Z,24.05
2019-02-17T03:45:43.361Z,21.82
2019-02-17T03:48:14.546Z,22.30
2019-02-17T03:50:45.419Z,23.00
2019-02-17T03:53:16.255Z,22.58
2019-02-17T03:55:47.283Z,22.77
2019-02-17T03:58:18.210Z,22.00
2019-02-17T04:00:48.938Z,22.70
2019-02-17T04:03:19.703Z,22.57
2019-02-17T04:05:50.574Z,22.50
2019-02-17T04:08:21.675Z,22.70
2019-02-17T04:10:52.414Z,22.67
2019-02-17T04:13:23.214Z,22.90
2019-02-17T04:15:54.056Z,22.77
2019-02-17T04:18:25.164Z,22.13
2019-02-17T04:20:56.778Z,23.45
2019-02-17T04:23:31.382Z,23.05
2019-02-17T04:26:00.038Z,22.87
2019-02-17T04:28:31.115Z,23.67
2019-02-17T04:31:02.263Z,24.07
2019-02-17T04:33:33.372Z,23.60
2019-02-17T04:36:04.291Z,23.00
2019-02-17T04:38:35.033Z,24.45
2019-02-17T04:41:05.766Z,26.03
2019-02-17T04:43:36.834Z,24.30
2019-02-17T04:46:07.609Z,24.92
2019-02-17T04:48:38.422Z,23.20
2019-02-17T04:51:09.328Z,26.30
2019-02-17T04:53:40.469Z,25.37
2019-02-17T04:56:11.511Z,23.67
2019-02-17T04:58:42.328Z,23.42
2019-02-17T05:01:13.143Z,23.90
2019-02-17T05:03:44.003Z,23.02
2019-02-17T05:06:14.811Z,21.90
2019-02-17T05:08:45.547Z,23.20
2019-02-17T05:11:16.326Z,23.25
2019-02-17T05:13:47.608Z,22.15
2019-02-17T05:16:18.365Z,22.73
2019-02-17T05:18:49.129Z,22.90
2019-02-17T05:21:20.133Z,22.87
2019-02-17T05:23:50.978Z,22.50
2019-02-17T05:26:22.329Z,23.30
2019-02-17T05:28:53.371Z,23.40
2019-02-17T05:31:24.092Z,23.47
2019-02-17T05:33:55.182Z,22.62
2019-02-17T05:36:26.002Z,22.73
2019-02-17T05:38:57.067Z,23.70
2019-02-17T05:41:28.081Z,25.10
2019-02-17T05:43:59.238Z,23.47
2019-02-17T05:46:30.009Z,23.90
2019-02-17T05:49:00.734Z,23.60
2019-02-17T05:51:31.565Z,25.48
2019-02-17T05:54:02.614Z,24.72
2019-02-17T05:56:33.443Z,24.37
2019-02-17T05:59:04.202Z,24.07
2019-02-17T06:01:34.960Z,24.98
2019-02-17T06:04:05.708Z,25.40
2019-02-17T06:06:36.750Z,25.23
2019-02-17T06:09:07.542Z,26.02
2019-02-17T06:11:38.266Z,25.75
2019-02-17T06:14:09.230Z,24.87
2019-02-17T06:16:40.101Z,30.68
2019-02-17T06:19:10.907Z,29.27
2019-02-17T06:21:41.651Z,25.45
2019-02-17T06:24:12.444Z,24.70
2019-02-17T06:26:43.195Z,24.57
2019-02-17T06:29:14.026Z,25.57
2019-02-17T06:31:44.856Z,24.72
2019-02-17T06:34:15.611Z,24.43
2019-02-17T06:36:46.373Z,25.88
2019-02-17T06:39:18.533Z,27.07
2019-02-17T06:41:49.578Z,25.30
2019-02-17T06:44:21.314Z,26.20
2019-02-17T06:46:56.020Z,25.68
2019-02-17T06:49:28.639Z,30.75
2019-02-17T06:51:59.412Z,27.67
2019-02-17T06:54:30.155Z,30.10
2019-02-17T06:57:22.603Z,28.87
2019-02-17T07:00:08.821Z,27.95
2019-02-17T07:02:39.554Z,28.90
2019-02-17T07:05:31.574Z,28.90
2019-02-17T07:08:02.322Z,28.20
2019-02-17T07:10:33.058Z,28.87
2019-02-17T07:13:03.804Z,27.60
2019-02-17T07:15:34.567Z,30.30
2019-02-17T07:18:05.415Z,30.52
2019-02-17T07:20:36.173Z,30.92
2019-02-17T07:23:06.927Z,30.23
2019-02-17T07:25:37.658Z,30.17
2019-02-17T07:28:08.468Z,29.30
2019-02-17T07:30:39.336Z,27.87
2019-02-17T07:33:10.141Z,28.50
2019-02-17T07:35:41.837Z,26.90
2019-02-17T07:38:12.597Z,30.00
2019-02-17T07:40:43.303Z,27.43
2019-02-17T07:43:14.075Z,27.90
2019-02-17T07:45:45.049Z,27.17
2019-02-17T07:48:15.781Z,24.55
2019-02-17T07:50:46.874Z,24.30
2019-02-17T07:53:17.587Z,28.10
2019-02-17T07:55:48.347Z,24.63
2019-02-17T07:58:19.089Z,24.53
2019-02-17T08:00:49.779Z,26.68
2019-02-17T08:03:20.503Z,26.65
2019-02-17T08:05:51.483Z,27.02
2019-02-17T08:08:22.371Z,25.50
2019-02-17T08:10:53.099Z,23.77
2019-02-17T08:13:25.145Z,24.85
2019-02-17T08:15:56.309Z,25.23
2019-02-17T08:18:27.487Z,24.00
2019-02-17T08:20:58.384Z,25.50
2019-02-17T08:23:29.231Z,21.93
2019-02-17T08:26:01.752Z,24.37
2019-02-17T08:28:32.494Z,26.03
2019-02-17T08:31:03.547Z,25.52
2019-02-17T08:33:34.343Z,24.52
2019-02-17T08:36:05.461Z,23.73
2019-02-17T08:38:36.555Z,23.98
2019-02-17T08:41:08.719Z,24.32
2019-02-17T08:43:39.775Z,25.05
2019-02-17T08:46:10.510Z,23.18
2019-02-17T08:48:41.262Z,23.12
2019-02-17T08:51:13.042Z,23.27
2019-02-17T08:53:45.098Z,22.25
2019-02-17T08:56:15.882Z,24.07
2019-02-17T08:58:46.925Z,22.65
2019-02-17T09:01:17.733Z,22.42
2019-02-17T09:03:48.496Z,24.27
2019-02-17T09:06:20.428Z,22.22
2019-02-17T09:08:51.195Z,24.15
2019-02-17T09:11:22.054Z,22.87
2019-02-17T09:13:52.888Z,22.80
2019-02-17T09:16:23.669Z,21.85
2019-02-17T09:18:54.448Z,21.87
2019-02-17T09:21:25.716Z,22.25
2019-02-17T09:23:56.583Z,24.50
2019-02-17T09:26:29.558Z,21.55
2019-02-17T09:29:00.262Z,21.15
2019-02-17T09:31:31.013Z,21.70
2019-02-17T09:34:01.818Z,21.50
2019-02-17T09:36:32.578Z,19.70
2019-02-17T09:39:04.847Z,21.40
2019-02-17T09:41:36.522Z,20.32
2019-02-17T09:44:07.250Z,20.90
2019-02-17T09:46:38.013Z,19.95
2019-02-17T09:49:08.743Z,20.40
2019-02-17T09:51:40.114Z,20.80
2019-02-17T09:54:11.191Z,21.15
2019-02-17T09:56:42.001Z,23.22
2019-02-17T09:59:12.761Z,21.15
2019-02-17T10:01:43.579Z,23.25
2019-02-17T10:04:14.329Z,21.25
2019-02-17T10:06:45.094Z,22.15
2019-02-17T10:09:15.859Z,21.33
2019-02-17T10:11:46.563Z,21.93
2019-02-17T10:14:17.379Z,21.87
2019-02-17T10:16:48.214Z,20.05
2019-02-17T10:19:18.965Z,21.45
2019-02-17T10:21:49.792Z,20.75
2019-02-17T10:24:20.599Z,18.85
2019-02-17T10:26:51.350Z,19.30
2019-02-17T10:29:22.494Z,20.90
2019-02-17T10:31:54.229Z,19.15
2019-02-17T10:34:26.011Z,20.95
2019-02-17T10:36:56.770Z,19.75
2019-02-17T10:39:27.574Z,18.10
2019-02-17T10:41:58.400Z,18.25
2019-02-17T10:44:29.579Z,19.77
2019-02-17T10:47:00.315Z,20.62
2019-02-17T10:49:31.062Z,20.80
2019-02-17T10:52:01.801Z,20.12
2019-02-17T10:54:32.871Z,20.23
2019-02-17T10:57:03.929Z,19.10
2019-02-17T10:59:34.960Z,20.08
2019-02-17T11:02:05.719Z,19.23
2019-02-17T11:04:37.914Z,20.90
2019-02-17T11:07:09.111Z,19.73
2019-02-17T11:09:39.858Z,18.35
2019-02-17T11:12:12.280Z,18.92
2019-02-17T11:14:43.104Z,20.97
2019-02-17T11:17:14.124Z,19.87
2019-02-17T11:19:45.195Z,19.48
2019-02-17T11:22:22.934Z,22.25
2019-02-17T11:24:48.636Z,18.67
2019-02-17T11:27:19.429Z,18.00
2019-02-17T11:29:50.417Z,18.40
2019-02-17T11:32:21.385Z,18.98
2019-02-17T11:34:52.178Z,17.07
2019-02-17T11:37:23.367Z,16.25
2019-02-17T11:39:54.494Z,18.70
2019-02-17T11:42:26.325Z,19.25
2019-02-17T11:44:57.091Z,19.37
2019-02-17T11:47:28.803Z,17.67
2019-02-17T11:49:59.661Z,17.10
2019-02-17T11:52:30.491Z,16.85
2019-02-17T11:55:02.572Z,17.20
2019-02-17T11:57:33.671Z,19.17
2019-02-17T12:00:05.011Z,15.78
2019-02-17T12:02:36.376Z,18.70
2019-02-17T12:05:08.222Z,18.85
2019-02-17T12:07:39.179Z,16.57
2019-02-17T12:10:10.680Z,16.97
2019-02-17T12:12:41.507Z,19.32
2019-02-17T12:15:12.822Z,18.23
2019-02-17T12:17:43.931Z,17.33
2019-02-17T12:20:41.959Z,16.87
2019-02-17T12:23:26.978Z,16.05
2019-02-17T12:26:25.762Z,15.55
2019-02-17T12:29:19.563Z,16.55
2019-02-17T12:31:50.661Z,16.45
2019-02-17T12:34:21.350Z,17.20
2019-02-17T12:36:52.287Z,16.77
2019-02-17T12:39:23.016Z,16.07
2019-02-17T12:41:54.006Z,16.75
2019-02-17T12:44:25.301Z,14.90
2019-02-17T12:46:56.043Z,16.55
2019-02-17T12:49:27.111Z,15.90
2019-02-17T12:52:02.532Z,15.43
2019-02-17T12:54:33.338Z,15.73
2019-02-17T12:57:04.495Z,15.20
2019-02-17T12:59:35.219Z,18.20
2019-02-17T13:02:06.018Z,16.05
2019-02-17T13:04:36.758Z,18.30
2019-02-17T13:07:07.513Z,14.87
2019-02-17T13:09:38.296Z,14.38
2019-02-17T13:12:09.361Z,15.68
2019-02-17T13:14:40.187Z,16.40
2019-02-17T13:17:10.971Z,15.98
2019-02-17T13:19:41.714Z,14.95
2019-02-17T13:22:12.459Z,17.10
2019-02-17T13:24:43.207Z,14.58
2019-02-17T13:27:14.483Z,15.83
2019-02-17T13:29:45.299Z,16.40
2019-02-17T13:32:17.052Z,14.00
2019-02-17T13:34:47.881Z,14.28
2019-02-17T13:37:18.680Z,13.80
2019-02-17T13:39:49.461Z,16.65
2019-02-17T13:42:20.250Z,14.37
2019-02-17T13:44:51.105Z,15.45
2019-02-17T13:47:22.285Z,14.77
2019-02-17T13:49:53.124Z,15.63
2019-02-17T13:52:23.980Z,12.82
2019-02-17T13:54:54.760Z,13.85
2019-02-17T13:57:25.537Z,14.40
2019-02-17T13:59:56.331Z,13.60
2019-02-17T14:02:27.180Z,15.28
2019-02-17T14:04:58.039Z,13.20
2019-02-17T14:07:28.818Z,14.65
2019-02-17T14:09:59.587Z,12.82
2019-02-17T14:12:30.411Z,14.78
2019-02-17T14:15:01.260Z,12.35
2019-02-17T14:17:32.155Z,14.43
2019-02-17T14:20:03.046Z,14.00
2019-02-17T14:22:33.839Z,13.90
2019-02-17T14:25:04.809Z,13.80
2019-02-17T14:27:35.570Z,15.80
2019-02-17T14:30:07.704Z,12.80
2019-02-17T14:32:38.503Z,13.22
2019-02-17T14:35:09.437Z,15.58
2019-02-17T14:37:40.290Z,14.75
2019-02-17T14:40:11.202Z,12.98
2019-02-17T14:42:42.060Z,11.17
2019-02-17T14:45:12.988Z,12.58
2019-02-17T14:47:43.910Z,11.95
2019-02-17T14:50:14.973Z,12.33
2019-02-17T14:52:45.791Z,12.20
2019-02-17T14:55:16.924Z,13.40
2019-02-17T14:57:47.751Z,13.00
2019-02-17T15:00:18.716Z,13.98
2019-02-17T15:02:49.532Z,11.20
2019-02-17T15:05:20.326Z,12.37
2019-02-17T15:07:51.068Z,11.93
2019-02-17T15:10:21.819Z,10.88
2019-02-17T15:12:52.552Z,10.90
2019-02-17T15:15:23.342Z,12.33
2019-02-17T15:17:54.722Z,9.83
2019-02-17T15:20:25.459Z,9.53
2019-02-17T15:22:56.157Z,11.95
2019-02-17T15:25:26.892Z,9.10
2019-02-17T15:27:57.625Z,10.65
2019-02-17T15:30:28.360Z,10.08
2019-02-17T15:33:03.897Z,9.90
2019-02-17T15:35:32.217Z,10.00
2019-02-17T15:38:03.280Z,9.98
2019-02-17T15:40:33.994Z,10.77
2019-02-17T15:43:04.803Z,10.65
2019-02-17T15:45:36.286Z,13.47
2019-02-17T15:48:07.228Z,9.28
2019-02-17T15:50:38.058Z,9.83
2019-02-17T15:53:08.776Z,8.60
2019-02-17T15:55:39.823Z,8.30
2019-02-17T15:58:10.813Z,9.88
2019-02-17T16:00:41.983Z,10.50
2019-02-17T16:03:12.789Z,9.15
2019-02-17T16:05:43.525Z,8.53
2019-02-17T16:08:14.274Z,7.28
2019-02-17T16:10:44.990Z,11.18
2019-02-17T16:13:16.129Z,8.00
2019-02-17T16:15:46.933Z,8.50
2019-02-17T16:18:17.709Z,9.05
2019-02-17T16:20:48.496Z,9.18
2019-02-17T16:23:19.215Z,7.60
2019-02-17T16:25:50.591Z,10.05
2019-02-17T16:28:21.602Z,7.60
2019-02-17T16:30:52.322Z,8.33
2019-02-17T16:33:23.048Z,8.63
2019-02-17T16:35:53.807Z,9.08
2019-02-17T16:38:25.711Z,8.90
2019-02-17T16:40:56.618Z,10.50
2019-02-17T16:43:27.656Z,10.48
2019-02-17T16:45:58.459Z,11.05
2019-02-17T16:48:29.455Z,9.78
2019-02-17T16:51:01.037Z,10.30
2019-02-17T16:53:32.070Z,12.53
2019-02-17T16:56:02.859Z,11.00
2019-02-17T17:01:15.249Z,12.30
2019-02-17T17:03:46.610Z,13.45
2019-02-17T17:06:17.469Z,10.63
2019-02-17T17:08:49.195Z,10.88
2019-02-17T17:11:20.183Z,12.80
2019-02-17T17:13:51.467Z,9.80
2019-02-17T17:16:23.278Z,10.03
2019-02-17T17:18:54.275Z,11.10
2019-02-17T17:21:25.124Z,11.50
2019-02-17T17:23:55.954Z,9.38
2019-02-17T17:26:26.778Z,11.63
2019-02-17T17:28:57.867Z,9.75
2019-02-17T17:31:28.931Z,9.18
2019-02-17T17:33:59.978Z,12.55
2019-02-17T17:36:30.682Z,9.43
2019-02-17T17:39:01.402Z,11.27
2019-02-17T17:41:32.517Z,10.98
2019-02-17T17:44:03.563Z,9.83
2019-02-17T17:46:34.551Z,9.50
2019-02-17T17:49:05.410Z,9.48
2019-02-17T17:51:36.422Z,10.27
2019-02-17T17:54:07.110Z,11.43
2019-02-17T17:56:37.912Z,9.83
2019-02-17T17:59:08.991Z,10.60
2019-02-17T18:01:39.825Z,8.87
2019-02-17T18:04:10.635Z,9.43
2019-02-17T18:06:41.443Z,10.90
2019-02-17T18:09:12.869Z,10.43
2019-02-17T18:11:43.992Z,9.38
2019-02-17T18:14:16.014Z,9.03
2019-02-17T18:16:46.711Z,10.65
2019-02-17T18:19:17.758Z,12.07
2019-02-17T18:21:48.470Z,9.70
2019-02-17T18:24:19.175Z,9.40
2019-02-17T18:26:49.898Z,8.83
2019-02-17T18:29:20.661Z,10.10
2019-02-17T18:31:51.547Z,10.88
2019-02-17T18:34:22.539Z,9.70
2019-02-17T18:36:53.258Z,10.55
2019-02-17T18:39:23.981Z,9.80
2019-02-17T18:41:54.714Z,9.88
2019-02-17T18:44:25.856Z,12.23
2019-02-17T18:46:56.590Z,11.18
2019-02-17T18:49:27.459Z,10.08
2019-02-17T18:51:58.534Z,9.80
2019-02-17T18:54:29.232Z,12.35
2019-02-17T18:57:08.005Z,10.82
2019-02-17T18:59:32.891Z,13.08
2019-02-17T19:02:04.709Z,12.63
2019-02-17T19:04:35.495Z,13.00
2019-02-17T19:07:06.943Z,13.50
2019-02-17T19:09:38.399Z,11.53
2019-02-17T19:12:09.203Z,11.60
2019-02-17T19:14:39.967Z,12.70
2019-02-17T19:17:10.857Z,12.45
2019-02-17T19:19:41.696Z,11.95
2019-02-17T19:22:12.375Z,11.33
2019-02-17T19:24:43.181Z,10.68
2019-02-17T19:27:13.955Z,11.68
2019-02-17T19:29:45.151Z,11.83
2019-02-17T19:32:16.155Z,11.73
2019-02-17T19:34:47.220Z,12.13
2019-02-17T19:37:18.486Z,13.08
2019-02-17T19:39:49.725Z,11.60
2019-02-17T19:42:23.139Z,12.68
2019-02-17T19:44:54.426Z,13.28
2019-02-17T19:47:25.639Z,13.63
2019-02-17T19:49:56.736Z,12.23
2019-02-17T19:52:27.475Z,11.25
2019-02-17T19:54:58.192Z,11.57
2019-02-17T19:57:28.913Z,13.20
2019-02-17T19:59:59.702Z,11.83
2019-02-17T20:02:49.871Z,15.13
2019-02-17T20:05:23.358Z,12.43
2019-02-17T20:07:54.167Z,13.35
2019-02-17T20:10:24.948Z,14.83
2019-02-17T20:12:56.071Z,13.18
2019-02-17T20:15:29.391Z,11.43
2019-02-17T20:18:01.512Z,13.00
2019-02-17T20:20:32.652Z,12.35
2019-02-17T20:23:03.410Z,12.82
2019-02-17T20:25:34.269Z,13.35
2019-02-17T20:28:05.031Z,12.33
2019-02-17T20:30:36.844Z,13.77
2019-02-17T20:33:07.942Z,12.75
2019-02-17T20:35:38.885Z,13.70
2019-02-17T20:38:09.597Z,13.15
2019-02-17T20:40:40.466Z,13.68
2019-02-17T20:43:11.507Z,13.58
2019-02-17T20:45:42.252Z,12.40
2019-02-17T20:48:13.005Z,15.13
2019-02-17T20:50:43.859Z,14.55
2019-02-17T20:53:14.579Z,13.53
2019-02-17T20:55:46.825Z,13.43
2019-02-17T20:58:17.851Z,12.10
2019-02-17T21:00:48.986Z,12.50
2019-02-17T21:03:19.729Z,11.68
2019-02-17T21:05:50.534Z,12.18
2019-02-17T21:08:21.339Z,11.20
2019-02-17T21:10:52.481Z,12.50
2019-02-17T21:13:23.223Z,13.38
2019-02-17T21:15:54.089Z,11.53
2019-02-17T21:18:25.178Z,12.00
2019-02-17T21:20:56.035Z,14.20
2019-02-17T21:23:26.887Z,11.63
2019-02-17T21:25:57.672Z,11.12
2019-02-17T21:28:28.409Z,13.68
2019-02-17T21:30:59.236Z,14.05
2019-02-17T21:33:30.279Z,12.95
2019-02-17T21:36:00.987Z,13.13
2019-02-17T21:38:31.730Z,12.18
2019-02-17T21:41:09.024Z,11.25
2019-02-17T21:43:34.922Z,11.33
2019-02-17T21:46:06.059Z,12.63
2019-02-17T21:48:36.971Z,12.17
2019-02-17T21:51:07.927Z,11.63
2019-02-17T21:53:38.651Z,12.10
2019-02-17T21:56:09.371Z,11.03
2019-02-17T21:58:40.123Z,13.47
2019-02-17T22:01:11.267Z,11.12
2019-02-17T22:03:42.348Z,12.47
2019-02-17T22:06:13.058Z,10.55
2019-02-17T22:08:43.789Z,13.55
2019-02-17T22:11:14.534Z,15.00
2019-02-17T22:13:45.272Z,11.20
2019-02-17T22:16:17.307Z,12.88
2019-02-17T22:18:48.377Z,11.63
2019-02-17T22:21:19.463Z,12.43
2019-02-17T22:23:50.169Z,10.38
2019-02-17T22:26:21.968Z,14.00
2019-02-17T22:28:52.730Z,11.78
2019-02-17T22:31:23.478Z,11.78
2019-02-17T22:33:54.226Z,13.15
2019-02-17T22:36:24.986Z,12.00
2019-02-17T22:38:55.712Z,9.10
2019-02-17T22:41:26.795Z,9.68
2019-02-17T22:43:57.511Z,9.93
2019-02-17T22:46:28.369Z,10.40
2019-02-17T22:48:59.117Z,12.03
2019-02-17T22:51:29.831Z,11.03
2019-02-17T22:54:00.850Z,10.25
2019-02-17T22:56:31.571Z,11.65
2019-02-17T22:59:02.326Z,11.90
2019-02-17T23:01:34.255Z,10.55
2019-02-17T23:04:05.098Z,10.32
2019-02-17T23:06:35.963Z,9.48
2019-02-17T23:09:08.445Z,11.23
2019-02-17T23:11:39.269Z,10.58
2019-02-17T23:14:10.068Z,9.80
2019-02-17T23:16:40.806Z,11.27
2019-02-17T23:19:11.872Z,12.65
2019-02-17T23:21:42.702Z,11.40
2019-02-17T23:24:13.839Z,11.60
2019-02-17T23:26:45.171Z,11.18
2019-02-17T23:29:15.863Z,12.03
2019-02-17T23:31:47.423Z,10.70
2019-02-17T23:34:19.178Z,10.95
2019-02-17T23:36:51.019Z,13.08
2019-02-17T23:39:22.637Z,12.80
2019-02-17T23:41:53.430Z,14.83
2019-02-17T23:44:24.172Z,12.00
2019-02-17T23:46:55.320Z,12.95
2019-02-17T23:49:26.034Z,12.98
2019-02-17T23:51:57.072Z,11.90
2019-02-17T23:54:28.068Z,12.63
2019-02-17T23:56:58.810Z,12.78
2019-02-17T23:59:29.537Z,11.97
